Time;durP1;ratioP1;P1;durP2;ratioP2;P2;SDS_P1;SDS_P2;PMS_P1;PMS_P2;Temp;Humidity;BMP_temperature;BMP_pressure;BME280_temperature;BME280_humidity;BME280_pressure;Samples;Min_cycle;Max_cycle;Signal;HPM_P1;HPM_P2
2021/05/04 00:01:36;;;;;;;2.58;0.90;;;23.00;34.30;;;;;;5032587;28;20395;-59
2021/05/04 00:04:02;;;;;;;2.03;0.87;;;23.00;34.20;;;;;;5032888;28;20751;-59
2021/05/04 00:06:27;;;;;;;1.55;0.90;;;23.00;34.20;;;;;;5031858;28;20423;-59
2021/05/04 00:08:53;;;;;;;1.30;0.90;;;23.00;34.20;;;;;;5033233;28;20928;-59
2021/05/04 00:11:19;;;;;;;1.73;0.90;;;23.00;34.10;;;;;;5033079;28;20445;-59
2021/05/04 00:13:45;;;;;;;1.65;0.82;;;23.00;34.20;;;;;;5032584;28;20391;-59
2021/05/04 00:16:10;;;;;;;1.55;0.80;;;22.90;34.10;;;;;;5033079;28;20446;-59
2021/05/04 00:18:36;;;;;;;1.42;0.88;;;23.00;34.10;;;;;;5032246;28;20479;-59
2021/05/04 00:21:02;;;;;;;1.40;0.80;;;22.90;34.00;;;;;;5033009;28;20494;-59
2021/05/04 00:23:28;;;;;;;1.00;0.75;;;22.90;34.00;;;;;;5032985;28;20415;-59
2021/05/04 00:25:53;;;;;;;2.00;0.90;;;22.90;34.00;;;;;;5032558;28;20464;-59
2021/05/04 00:28:19;;;;;;;1.10;0.90;;;22.90;34.00;;;;;;5032938;28;20948;-59
2021/05/04 00:30:45;;;;;;;1.20;0.80;;;22.90;34.00;;;;;;5032323;28;20410;-59
2021/05/04 00:33:10;;;;;;;2.15;1.10;;;22.90;34.00;;;;;;5030475;28;20411;-59
2021/05/04 00:35:36;;;;;;;1.20;0.80;;;22.90;34.00;;;;;;5031830;28;20390;-59
2021/05/04 00:38:02;;;;;;;1.33;0.80;;;22.90;34.00;;;;;;5032596;28;20429;-59
2021/05/04 00:40:27;;;;;;;1.40;0.80;;;22.90;34.00;;;;;;5032553;28;20747;-60
2021/05/04 00:42:53;;;;;;;1.10;0.60;;;22.90;34.00;;;;;;5032638;28;20449;-59
2021/05/04 00:45:19;;;;;;;1.33;0.85;;;22.80;33.90;;;;;;5032630;28;20935;-59
2021/05/04 00:47:44;;;;;;;1.97;0.77;;;22.90;34.00;;;;;;5031234;28;20398;-59
2021/05/04 00:50:11;;;;;;;1.40;0.80;;;22.80;33.90;;;;;;5032357;28;20470;-59
2021/05/04 00:52:37;;;;;;;1.70;0.90;;;22.80;33.90;;;;;;5032366;28;20434;-59
2021/05/04 00:55:04;;;;;;;1.75;0.90;;;22.80;33.90;;;;;;5032678;28;20397;-60
2021/05/04 00:57:32;;;;;;;1.27;0.80;;;22.80;33.90;;;;;;5032065;28;20395;-61
2021/05/04 01:00:04;;;;;;;1.08;0.80;;;22.80;33.90;;;;;;5032060;28;20445;-59
2021/05/04 01:02:32;;;;;;;1.15;0.70;;;22.80;33.90;;;;;;5032395;28;20503;-59
2021/05/04 01:04:58;;;;;;;1.40;0.70;;;22.80;33.80;;;;;;5032199;28;20917;-59
2021/05/04 01:07:26;;;;;;;1.48;0.80;;;22.80;33.80;;;;;;5030790;28;20438;-59
2021/05/04 01:09:52;;;;;;;0.90;0.60;;;22.80;33.90;;;;;;5030462;28;20452;-59
2021/05/04 01:12:18;;;;;;;2.00;0.80;;;22.80;34.50;;;;;;5032087;28;20898;-58
2021/05/04 01:14:44;;;;;;;1.10;0.80;;;22.80;33.90;;;;;;5032008;28;20394;-59
2021/05/04 01:17:09;;;;;;;1.00;0.70;;;22.80;33.80;;;;;;5031932;28;20395;-60
2021/05/04 01:19:35;;;;;;;1.37;0.70;;;22.80;33.80;;;;;;5031084;28;20383;-59
2021/05/04 01:22:01;;;;;;;1.63;0.88;;;22.80;33.80;;;;;;5031774;28;20387;-60
2021/05/04 01:24:27;;;;;;;1.25;0.70;;;22.80;33.80;;;;;;5031881;28;20743;-60
2021/05/04 01:26:52;;;;;;;1.00;0.80;;;22.80;33.80;;;;;;5031834;28;20411;-59
2021/05/04 01:29:18;;;;;;;1.15;0.75;;;22.80;33.80;;;;;;5031927;28;20478;-60
2021/05/04 01:31:44;;;;;;;1.37;0.70;;;22.80;33.80;;;;;;5031340;28;20434;-60
2021/05/04 01:34:12;;;;;;;1.23;0.80;;;22.70;33.70;;;;;;5031925;28;20433;-60
2021/05/04 01:36:38;;;;;;;1.13;0.70;;;22.70;33.80;;;;;;5031781;28;20395;-60
2021/05/04 01:39:09;;;;;;;1.40;0.75;;;22.70;33.70;;;;;;5031729;28;20440;-60
2021/05/04 01:41:35;;;;;;;1.20;0.63;;;22.70;33.80;;;;;;5030223;28;20406;-60
2021/05/04 01:44:03;;;;;;;1.40;0.70;;;22.70;33.70;;;;;;5031309;28;20474;-60
2021/05/04 01:46:34;;;;;;;1.10;0.70;;;22.70;33.70;;;;;;5031658;28;20443;-59
2021/05/04 01:49:05;;;;;;;1.43;0.90;;;22.70;33.70;;;;;;5031064;28;20894;-60
2021/05/04 01:51:34;;;;;;;0.90;0.60;;;22.70;33.70;;;;;;5031230;28;20411;-60
2021/05/04 01:54:00;;;;;;;1.08;0.63;;;22.70;33.70;;;;;;5031210;28;20394;-61
2021/05/04 01:56:26;;;;;;;1.40;0.60;;;22.70;33.70;;;;;;5031446;28;20474;-60
2021/05/04 01:58:55;;;;;;;0.80;0.52;;;22.70;33.70;;;;;;5031479;28;20483;-60
2021/05/04 02:01:21;;;;;;;1.00;0.60;;;22.70;33.70;;;;;;5031383;28;20470;-60
2021/05/04 02:03:47;;;;;;;1.00;0.70;;;22.70;33.70;;;;;;5030212;28;20475;-60
2021/05/04 02:06:13;;;;;;;1.10;0.70;;;22.70;33.70;;;;;;5031215;28;20480;-60
2021/05/04 02:08:39;;;;;;;1.00;0.70;;;22.70;33.70;;;;;;5031438;28;20422;-60
2021/05/04 02:11:05;;;;;;;1.00;0.70;;;22.70;33.70;;;;;;5031283;28;20414;-61
2021/05/04 02:13:31;;;;;;;1.30;0.70;;;22.70;33.70;;;;;;5031434;28;20422;-59
2021/05/04 02:15:57;;;;;;;1.05;0.70;;;22.70;33.70;;;;;;5030832;28;20404;-60
2021/05/04 02:18:22;;;;;;;0.87;0.63;;;22.70;33.70;;;;;;5031106;28;20402;-59
2021/05/04 02:20:48;;;;;;;1.17;0.70;;;22.70;33.70;;;;;;5031195;28;20387;-59
2021/05/04 02:23:14;;;;;;;1.13;0.67;;;22.70;33.70;;;;;;5031279;28;20391;-59
2021/05/04 02:25:39;;;;;;;1.08;0.70;;;22.70;33.70;;;;;;5029709;28;20410;-59
2021/05/04 02:28:05;;;;;;;1.33;0.70;;;22.60;33.60;;;;;;5031171;28;20441;-59
2021/05/04 02:30:34;;;;;;;1.00;0.60;;;22.60;33.60;;;;;;5031204;28;20402;-59
2021/05/04 02:33:01;;;;;;;1.25;0.77;;;22.60;33.50;;;;;;5031270;28;20391;-59
2021/05/04 02:35:27;;;;;;;1.30;0.60;;;22.60;33.50;;;;;;5030013;28;20405;-59
2021/05/04 02:37:53;;;;;;;1.20;0.70;;;22.60;33.50;;;;;;5030621;28;20391;-60
2021/05/04 02:40:19;;;;;;;0.95;0.70;;;22.60;33.50;;;;;;5029872;28;20421;-59
2021/05/04 02:42:44;;;;;;;1.20;0.70;;;22.70;33.60;;;;;;5031056;28;20474;-59
2021/05/04 02:45:11;;;;;;;1.60;0.80;;;22.60;33.50;;;;;;5031124;28;20401;-60
2021/05/04 02:47:36;;;;;;;1.30;0.60;;;22.60;33.50;;;;;;5030890;28;20449;-60
2021/05/04 02:50:03;;;;;;;0.90;0.60;;;22.60;33.50;;;;;;5030742;28;20398;-59
2021/05/04 02:52:28;;;;;;;1.07;0.70;;;22.60;33.50;;;;;;5030938;28;20510;-59
2021/05/04 02:54:54;;;;;;;0.80;0.50;;;22.60;33.50;;;;;;5032215;28;20470;-59
2021/05/04 02:57:20;;;;;;;1.10;0.70;;;22.60;33.60;;;;;;5034688;28;20397;-62
2021/05/04 02:59:46;;;;;;;1.33;0.93;;;22.60;33.60;;;;;;5032839;28;20984;-59
2021/05/04 03:02:12;;;;;;;0.77;0.50;;;22.60;33.60;;;;;;5034757;28;20391;-59
2021/05/04 03:04:39;;;;;;;1.20;0.63;;;22.60;33.60;;;;;;5032305;28;20482;-59
2021/05/04 03:07:05;;;;;;;0.98;0.65;;;22.60;34.20;;;;;;5033745;28;20967;-60
2021/05/04 03:09:30;;;;;;;0.80;0.60;;;22.50;33.60;;;;;;5034434;28;20388;-59
2021/05/04 03:11:56;;;;;;;1.30;0.60;;;22.60;33.60;;;;;;5032355;28;20479;-60
2021/05/04 03:14:24;;;;;;;1.00;0.57;;;22.50;33.50;;;;;;5034267;28;20387;-60
2021/05/04 03:16:50;;;;;;;1.10;0.70;;;22.50;33.50;;;;;;5034242;28;20387;-61
2021/05/04 03:19:15;;;;;;;0.88;0.57;;;22.50;33.50;;;;;;5034072;28;20418;-60
2021/05/04 03:21:41;;;;;;;1.20;0.60;;;22.50;33.40;;;;;;5033955;28;20995;-61
2021/05/04 03:24:07;;;;;;;0.93;0.70;;;22.50;33.40;;;;;;5034049;28;20411;-61
2021/05/04 03:26:33;;;;;;;1.20;0.67;;;22.50;33.40;;;;;;5032859;28;20395;-61
2021/05/04 03:28:58;;;;;;;0.90;0.70;;;22.50;33.40;;;;;;5034007;28;20378;-60
2021/05/04 03:31:24;;;;;;;1.30;0.60;;;22.40;33.40;;;;;;5033964;28;20453;-60
2021/05/04 03:33:50;;;;;;;0.80;0.50;;;22.50;33.40;;;;;;5033554;28;20383;-59
2021/05/04 03:36:15;;;;;;;1.00;0.60;;;22.50;33.40;;;;;;5033997;28;20402;-59
2021/05/04 03:38:42;;;;;;;1.10;0.63;;;22.40;33.40;;;;;;5033840;28;20387;-59
2021/05/04 03:41:07;;;;;;;1.38;0.70;;;22.50;33.40;;;;;;5033836;28;20890;-59
2021/05/04 03:43:33;;;;;;;1.00;0.70;;;22.40;33.40;;;;;;5033859;28;20399;-60
2021/05/04 03:45:59;;;;;;;1.03;0.70;;;22.50;33.50;;;;;;5033070;28;20406;-60
2021/05/04 03:48:24;;;;;;;0.93;0.60;;;22.50;33.50;;;;;;5033835;28;20403;-59
2021/05/04 03:50:50;;;;;;;0.90;0.60;;;22.40;33.50;;;;;;5033642;28;20399;-60
2021/05/04 03:53:16;;;;;;;1.50;0.70;;;22.40;33.40;;;;;;5032572;28;20914;-60
2021/05/04 03:55:45;;;;;;;0.90;0.50;;;22.40;33.40;;;;;;5033390;28;20391;-59
2021/05/04 03:58:11;;;;;;;0.90;0.60;;;22.50;33.40;;;;;;5033466;28;20737;-59
2021/05/04 04:00:37;;;;;;;0.90;0.70;;;22.40;33.40;;;;;;5033458;28;20440;-59
2021/05/04 04:03:03;;;;;;;0.80;0.50;;;22.40;33.40;;;;;;5033519;28;20414;-59
2021/05/04 04:05:28;;;;;;;1.20;0.50;;;22.40;33.30;;;;;;5032748;28;20403;-59
2021/05/04 04:07:54;;;;;;;1.30;0.60;;;22.40;33.40;;;;;;5031825;28;20410;-64
2021/05/04 04:10:20;;;;;;;1.35;0.70;;;22.40;33.50;;;;;;5033262;28;20882;-64
2021/05/04 04:12:45;;;;;;;1.07;0.60;;;22.40;33.20;;;;;;5033069;28;20415;-64
2021/05/04 04:15:12;;;;;;;1.15;0.60;;;22.30;33.00;;;;;;5033284;28;20399;-59
2021/05/04 04:17:37;;;;;;;1.38;0.63;;;22.30;33.10;;;;;;5033216;28;20406;-60
2021/05/04 04:20:04;;;;;;;1.65;0.73;;;22.20;33.20;;;;;;5031794;28;20380;-65
2021/05/04 04:22:30;;;;;;;1.50;0.63;;;22.20;33.70;;;;;;5032649;28;20522;-65
2021/05/04 04:24:56;;;;;;;1.40;0.60;;;22.10;33.40;;;;;;5032633;28;20395;-65
2021/05/04 04:27:22;;;;;;;1.95;0.70;;;22.20;33.50;;;;;;5032870;28;20399;-64
2021/05/04 04:29:48;;;;;;;1.00;0.60;;;22.10;33.50;;;;;;5032361;28;20399;-65
2021/05/04 04:32:13;;;;;;;1.63;0.70;;;22.10;33.40;;;;;;5025635;28;20469;-60
2021/05/04 04:34:39;;;;;;;1.17;0.60;;;22.10;33.40;;;;;;5032979;28;20410;-58
2021/05/04 04:37:05;;;;;;;0.90;0.60;;;22.10;33.50;;;;;;5032819;28;20872;-59
2021/05/04 04:39:30;;;;;;;1.50;0.80;;;22.10;33.50;;;;;;5032821;28;20391;-62
2021/05/04 04:41:56;;;;;;;1.55;0.63;;;22.10;33.80;;;;;;5032254;28;20434;-59
2021/05/04 04:44:22;;;;;;;1.27;0.60;;;22.10;33.70;;;;;;5032699;28;20392;-59
2021/05/04 04:46:47;;;;;;;0.93;0.70;;;22.10;33.70;;;;;;5032479;28;20399;-59
2021/05/04 04:49:18;;;;;;;1.30;0.60;;;22.10;33.70;;;;;;5032569;28;20392;-59
2021/05/04 04:51:45;;;;;;;1.30;0.70;;;22.10;33.80;;;;;;5032317;28;20423;-60
2021/05/04 04:54:11;;;;;;;2.53;0.60;;;22.10;33.80;;;;;;5032206;28;21030;-60
2021/05/04 04:56:37;;;;;;;1.20;0.70;;;22.10;33.80;;;;;;5032409;28;20394;-61
2021/05/04 04:59:04;;;;;;;1.43;0.60;;;22.00;33.90;;;;;;5031175;28;20395;-59
2021/05/04 05:01:29;;;;;;;1.65;0.65;;;22.10;34.10;;;;;;5032346;28;20406;-59
2021/05/04 05:03:55;;;;;;;2.55;0.60;;;22.10;33.90;;;;;;5031696;28;20375;-59
2021/05/04 05:06:21;;;;;;;1.20;0.67;;;22.10;33.90;;;;;;5020324;28;20415;-60
2021/05/04 05:08:51;;;;;;;1.45;0.70;;;22.00;34.00;;;;;;5010470;28;20488;-63
2021/05/04 05:11:18;;;;;;;1.17;0.68;;;22.00;33.80;;;;;;5012203;28;20408;-60
2021/05/04 05:13:45;;;;;;;2.20;0.70;;;22.10;33.90;;;;;;5012715;28;20401;-59
2021/05/04 05:16:12;;;;;;;1.63;0.70;;;22.10;34.00;;;;;;5012056;28;20880;-60
2021/05/04 05:18:38;;;;;;;1.42;0.60;;;22.10;34.00;;;;;;5011925;28;20405;-60
2021/05/04 05:21:04;;;;;;;2.38;0.80;;;22.00;33.90;;;;;;5011802;28;20746;-59
2021/05/04 05:23:29;;;;;;;2.67;0.80;;;22.10;34.50;;;;;;5014876;28;20391;-59
2021/05/04 05:25:57;;;;;;;1.53;0.60;;;22.10;33.90;;;;;;5031384;28;20388;-60
2021/05/04 05:28:23;;;;;;;1.90;0.50;;;22.10;33.80;;;;;;5031805;28;20756;-59
2021/05/04 05:30:48;;;;;;;0.87;0.60;;;22.10;33.80;;;;;;5031835;28;20403;-59
2021/05/04 05:33:14;;;;;;;2.10;0.65;;;22.10;33.80;;;;;;5030640;28;20406;-61
2021/05/04 05:35:39;;;;;;;1.33;0.53;;;22.10;33.70;;;;;;5029064;28;20894;-59
2021/05/04 05:38:05;;;;;;;1.20;0.60;;;22.20;33.80;;;;;;5009589;28;20554;-63
2021/05/04 05:40:32;;;;;;;1.90;0.70;;;22.20;33.70;;;;;;5012006;28;20380;-60
2021/05/04 05:42:57;;;;;;;1.40;0.70;;;22.20;33.70;;;;;;5012078;28;20480;-61
2021/05/04 05:45:23;;;;;;;1.90;0.70;;;22.20;33.70;;;;;;5012004;28;20889;-64
2021/05/04 05:47:49;;;;;;;1.42;0.60;;;22.20;33.60;;;;;;5010496;28;20392;-59
2021/05/04 05:50:14;;;;;;;1.60;0.70;;;22.20;33.70;;;;;;5011652;28;20381;-59
2021/05/04 05:52:40;;;;;;;1.42;0.70;;;22.20;33.60;;;;;;5012005;28;20408;-59
2021/05/04 05:55:06;;;;;;;1.70;0.77;;;22.20;33.80;;;;;;5010999;28;20392;-60
2021/05/04 05:57:32;;;;;;;4.15;0.70;;;22.20;33.80;;;;;;5021584;28;20495;-62
2021/05/04 05:59:57;;;;;;;4.05;0.90;;;22.20;33.90;;;;;;5030950;28;20419;-61
2021/05/04 06:02:23;;;;;;;3.37;1.00;;;22.20;34.20;;;;;;5031528;28;20391;-59
2021/05/04 06:04:48;;;;;;;3.90;0.90;;;22.20;35.80;;;;;;5031104;28;20460;-59
2021/05/04 06:07:14;;;;;;;2.03;0.80;;;22.20;34.80;;;;;;5030577;28;20416;-59
2021/05/04 06:09:41;;;;;;;1.35;0.70;;;22.20;34.80;;;;;;5030956;28;20384;-59
2021/05/04 06:12:07;;;;;;;1.30;0.70;;;22.20;34.40;;;;;;5030590;28;20427;-59
2021/05/04 06:14:32;;;;;;;2.83;0.90;;;22.20;34.10;;;;;;5031380;28;20388;-59
2021/05/04 06:16:58;;;;;;;2.87;0.80;;;22.30;34.00;;;;;;5031097;28;20406;-59
2021/05/04 06:19:24;;;;;;;3.22;0.90;;;22.30;34.20;;;;;;5030960;28;20731;-59
2021/05/04 06:21:49;;;;;;;3.60;1.00;;;22.30;33.90;;;;;;5030855;28;20477;-59
2021/05/04 06:24:15;;;;;;;3.00;1.00;;;22.30;34.10;;;;;;5030231;28;20393;-59
2021/05/04 06:26:41;;;;;;;2.80;1.03;;;22.30;33.80;;;;;;5030721;28;20760;-60
2021/05/04 06:29:07;;;;;;;1.85;1.20;;;22.30;34.20;;;;;;5029872;28;20394;-60
2021/05/04 06:31:34;;;;;;;2.75;1.00;;;22.40;33.70;;;;;;5034904;28;20425;-58
2021/05/04 06:33:59;;;;;;;2.38;1.05;;;22.40;33.50;;;;;;5034441;28;20466;-58
2021/05/04 06:36:25;;;;;;;2.00;0.70;;;22.40;33.80;;;;;;5033728;28;20494;-58
2021/05/04 06:38:51;;;;;;;2.10;0.80;;;22.50;33.80;;;;;;5034874;28;20415;-59
2021/05/04 06:41:16;;;;;;;3.80;0.90;;;22.50;33.70;;;;;;5034923;28;20395;-60
2021/05/04 06:43:42;;;;;;;1.57;0.83;;;22.60;33.80;;;;;;5034776;28;20390;-59
2021/05/04 06:46:08;;;;;;;2.40;0.90;;;22.60;33.70;;;;;;5032615;28;20899;-59
2021/05/04 06:48:33;;;;;;;2.53;0.80;;;22.60;33.90;;;;;;5034800;28;20391;-59
2021/05/04 06:50:59;;;;;;;2.70;1.00;;;22.60;34.00;;;;;;5033863;28;20413;-59
2021/05/04 06:53:26;;;;;;;1.97;0.83;;;22.60;33.80;;;;;;5033862;28;20461;-58
2021/05/04 06:55:52;;;;;;;2.42;0.82;;;22.60;33.70;;;;;;5034126;28;20391;-59
2021/05/04 06:58:18;;;;;;;2.78;0.90;;;22.60;34.30;;;;;;5033136;28;20399;-60
2021/05/04 07:00:43;;;;;;;2.92;0.90;;;22.60;34.20;;;;;;5034550;28;20744;-58
2021/05/04 07:03:09;;;;;;;2.87;1.00;;;22.60;33.50;;;;;;5034601;28;20391;-59
2021/05/04 07:05:35;;;;;;;1.80;0.80;;;22.60;33.50;;;;;;5033883;28;20874;-59
2021/05/04 07:08:00;;;;;;;3.13;0.90;;;22.60;33.50;;;;;;5034055;28;20472;-60
2021/05/04 07:10:26;;;;;;;3.45;0.90;;;22.60;33.50;;;;;;5034283;28;20731;-59
2021/05/04 07:12:52;;;;;;;3.13;0.90;;;22.60;33.50;;;;;;5034139;28;20489;-59
2021/05/04 07:15:18;;;;;;;3.83;0.90;;;22.60;33.70;;;;;;5034214;28;20387;-59
2021/05/04 07:17:43;;;;;;;2.38;0.80;;;22.60;33.70;;;;;;5034183;28;20387;-59
2021/05/04 07:20:10;;;;;;;2.80;0.93;;;22.60;33.70;;;;;;5033717;28;20395;-59
2021/05/04 07:22:36;;;;;;;2.25;0.80;;;22.60;33.50;;;;;;5034088;28;20401;-59
2021/05/04 07:25:03;;;;;;;1.80;0.82;;;22.60;33.60;;;;;;5032691;28;20403;-61
2021/05/04 07:27:28;;;;;;;2.05;0.82;;;22.60;33.70;;;;;;5034063;28;20376;-59
2021/05/04 07:29:54;;;;;;;1.92;0.75;;;22.60;33.50;;;;;;5032399;28;20452;-59
2021/05/04 07:32:20;;;;;;;2.00;0.70;;;22.60;33.70;;;;;;5032347;28;20906;-59
2021/05/04 07:34:46;;;;;;;2.50;0.70;;;22.60;33.60;;;;;;5033700;28;20394;-60
2021/05/04 07:37:12;;;;;;;1.58;0.70;;;22.60;33.70;;;;;;5033862;28;20405;-58
2021/05/04 07:39:38;;;;;;;2.65;0.80;;;22.70;33.70;;;;;;5033748;28;20879;-58
2021/05/04 07:42:05;;;;;;;3.03;0.90;;;22.60;33.80;;;;;;5032984;28;20818;-58
2021/05/04 07:44:31;;;;;;;2.77;0.90;;;22.60;33.90;;;;;;5033041;28;20399;-59
2021/05/04 07:46:56;;;;;;;5.13;1.00;;;22.60;33.90;;;;;;5028292;28;20413;-59
2021/05/04 07:49:30;;;;;;;2.22;0.90;;;22.70;34.50;;;;;;5026377;28;20397;-60
2021/05/04 07:51:56;;;;;;;2.92;0.80;;;22.70;34.60;;;;;;5024348;28;20837;-60
2021/05/04 07:54:21;;;;;;;2.40;0.88;;;22.70;34.20;;;;;;5022610;28;20492;-60
2021/05/04 07:56:47;;;;;;;2.63;0.90;;;22.70;34.10;;;;;;5024722;28;20879;-65
2021/05/04 07:59:13;;;;;;;2.15;0.98;;;22.70;33.80;;;;;;5022716;28;20471;-59
2021/05/04 08:01:39;;;;;;;1.90;0.80;;;22.70;34.10;;;;;;5022906;28;20395;-61
2021/05/04 08:04:05;;;;;;;2.70;0.70;;;22.70;33.80;;;;;;5023517;28;21006;-60
2021/05/04 08:06:31;;;;;;;2.20;0.70;;;22.70;33.70;;;;;;5015635;28;20462;-58
2021/05/04 08:08:57;;;;;;;2.70;0.90;;;22.70;34.00;;;;;;5013212;28;20873;-59
2021/05/04 08:11:22;;;;;;;1.58;0.90;;;22.70;33.50;;;;;;5013243;28;20413;-59
2021/05/04 08:13:48;;;;;;;3.03;0.90;;;22.80;33.50;;;;;;5013413;28;20496;-58
2021/05/04 08:16:15;;;;;;;2.65;0.90;;;22.70;33.70;;;;;;5012966;28;20399;-58
2021/05/04 08:18:44;;;;;;;2.00;1.05;;;22.80;33.70;;;;;;5013257;28;20424;-59
2021/05/04 08:21:10;;;;;;;2.20;0.90;;;22.80;33.00;;;;;;5012958;28;20392;-58
2021/05/04 08:23:36;;;;;;;2.35;0.70;;;22.90;33.00;;;;;;5013108;28;20581;-58
2021/05/04 08:26:02;;;;;;;1.53;0.70;;;22.90;32.70;;;;;;5012617;28;20861;-58
2021/05/04 08:28:27;;;;;;;1.38;0.80;;;22.90;32.50;;;;;;5013089;28;20466;-58
2021/05/04 08:30:54;;;;;;;2.00;0.80;;;22.90;33.20;;;;;;5013055;28;20451;-58
2021/05/04 08:33:21;;;;;;;6.00;1.10;;;23.00;32.50;;;;;;5012836;28;20433;-58
2021/05/04 08:35:46;;;;;;;2.30;0.80;;;22.90;33.70;;;;;;5011188;28;20769;-58
2021/05/04 08:38:13;;;;;;;2.03;0.80;;;23.00;34.00;;;;;;5012752;28;20396;-58
2021/05/04 08:40:39;;;;;;;2.42;0.85;;;23.00;34.20;;;;;;5012964;28;20860;-61
2021/05/04 08:43:05;;;;;;;2.70;0.80;;;23.00;35.50;;;;;;5012918;28;20495;-58
2021/05/04 08:45:34;;;;;;;2.65;0.70;;;23.00;34.00;;;;;;5012911;28;20388;-59
2021/05/04 08:48:01;;;;;;;2.30;0.80;;;23.10;33.50;;;;;;5012008;28;20401;-58
2021/05/04 08:50:28;;;;;;;3.50;0.87;;;23.10;32.50;;;;;;5012186;28;20417;-58
2021/05/04 08:52:54;;;;;;;6.65;1.05;;;23.00;32.70;;;;;;5011654;28;20440;-59
2021/05/04 08:55:20;;;;;;;4.30;0.90;;;23.00;33.10;;;;;;5012673;28;20738;-58
2021/05/04 08:57:46;;;;;;;4.90;0.80;;;23.00;33.80;;;;;;5012552;28;20411;-59
2021/05/04 09:00:14;;;;;;;1.37;0.70;;;22.90;33.10;;;;;;5012173;28;20467;-60
2021/05/04 09:03:15;;;;;;;2.92;0.80;;;23.00;33.20;;;;;;5011045;28;20916;-59
2021/05/04 09:06:06;;;;;;;1.17;0.60;;;23.00;33.30;;;;;;5011827;28;20413;-59
2021/05/04 09:09:04;;;;;;;1.75;0.80;;;23.00;33.20;;;;;;5012542;28;20487;-58
2021/05/04 09:14:09;;;;;;;4.03;0.65;;;23.10;33.20;;;;;;5011669;28;20392;-58
2021/05/04 09:21:45;;;;;;;3.05;0.75;;;23.20;33.20;;;;;;5049941;28;20797;-59
2021/05/04 09:24:31;;;;;;;3.75;0.77;;;23.30;32.60;;;;;;5049753;28;20873;-58
2021/05/04 09:27:06;;;;;;;1.95;0.60;;;23.30;32.40;;;;;;5050269;28;20758;-59
2021/05/04 09:29:46;;;;;;;2.40;0.90;;;23.30;32.40;;;;;;5049005;28;20397;-61
2021/05/04 09:32:17;;;;;;;2.30;0.80;;;23.30;31.90;;;;;;5049870;28;20449;-59
2021/05/04 09:34:50;;;;;;;2.30;1.02;;;23.40;31.10;;;;;;5050145;28;20417;-59
2021/05/04 09:37:23;;;;;;;2.13;1.00;;;23.40;31.00;;;;;;5050184;28;20393;-60
2021/05/04 09:39:48;;;;;;;2.00;1.10;;;23.40;30.80;;;;;;5050313;28;20386;-59
2021/05/04 09:42:14;;;;;;;2.90;1.03;;;23.50;30.50;;;;;;5049766;28;20393;-59
2021/05/04 09:44:46;;;;;;;1.50;1.00;;;23.50;30.50;;;;;;5050113;28;20916;-59
2021/05/04 09:47:17;;;;;;;3.08;0.93;;;23.60;30.30;;;;;;5049960;28;20392;-63
2021/05/04 09:49:43;;;;;;;2.05;0.80;;;23.60;30.30;;;;;;5050082;28;20385;-59
2021/05/04 09:55:14;;;;;;;1.55;0.88;;;23.60;30.00;;;;;;5050057;28;20380;-62
2021/05/04 09:58:07;;;;;;;2.10;1.10;;;23.60;30.10;;;;;;5050034;28;20393;-59
2021/05/04 10:00:33;;;;;;;3.17;1.00;;;23.70;30.00;;;;;;5050041;28;20877;-59
2021/05/04 10:03:00;;;;;;;4.13;1.00;;;23.60;30.20;;;;;;5048698;28;20393;-61
2021/05/04 10:05:27;;;;;;;3.00;0.88;;;23.60;30.10;;;;;;5053942;28;20805;-61
2021/05/04 10:07:55;;;;;;;3.50;1.10;;;23.70;30.30;;;;;;5052804;28;20477;-61
2021/05/04 10:10:22;;;;;;;3.40;0.90;;;23.80;30.30;;;;;;5053759;28;20469;-61
2021/05/04 10:12:47;;;;;;;4.07;1.00;;;23.90;30.60;;;;;;5052598;28;20905;-61
2021/05/04 10:15:15;;;;;;;3.00;0.90;;;23.90;30.70;;;;;;5053953;28;20398;-59
2021/05/04 10:17:42;;;;;;;1.92;0.70;;;24.00;31.00;;;;;;5053870;28;20820;-59
2021/05/04 10:20:18;;;;;;;3.78;1.10;;;24.00;31.00;;;;;;5053531;28;20385;-59
2021/05/04 10:22:44;;;;;;;1.90;0.90;;;24.10;31.20;;;;;;5053731;28;20849;-59
2021/05/04 10:25:17;;;;;;;2.90;0.77;;;24.10;31.20;;;;;;5053770;28;20401;-61
2021/05/04 10:27:43;;;;;;;2.30;0.70;;;24.10;31.90;;;;;;5053815;28;20417;-60
2021/05/04 10:30:12;;;;;;;2.13;0.82;;;24.10;31.90;;;;;;5053300;28;20447;-60
2021/05/04 10:32:50;;;;;;;1.90;0.70;;;24.10;31.40;;;;;;5053436;28;20424;-61
2021/05/04 10:35:32;;;;;;;1.83;0.77;;;24.10;31.10;;;;;;5053658;28;20451;-60
2021/05/04 10:38:00;;;;;;;1.70;0.90;;;24.20;31.10;;;;;;5053665;28;20542;-61
2021/05/04 10:40:31;;;;;;;2.38;0.63;;;24.20;31.20;;;;;;5051902;28;20742;-61
2021/05/04 10:43:21;;;;;;;1.90;0.80;;;24.10;31.20;;;;;;5053547;28;20395;-60
2021/05/04 10:45:58;;;;;;;1.05;0.63;;;24.20;30.90;;;;;;5053412;28;20397;-59
2021/05/04 10:48:36;;;;;;;2.85;0.90;;;24.20;30.70;;;;;;5051724;28;20397;-59
2021/05/04 10:51:04;;;;;;;3.22;1.30;;;24.20;30.60;;;;;;5053331;28;20423;-60
2021/05/04 10:53:51;;;;;;;2.30;1.25;;;24.30;30.10;;;;;;5052879;28;20393;-59
2021/05/04 10:56:30;;;;;;;2.85;1.55;;;24.30;30.50;;;;;;5051192;28;20432;-59
2021/05/04 10:58:55;;;;;;;5.50;1.77;;;24.40;30.00;;;;;;5051955;28;20382;-59
2021/05/04 11:01:21;;;;;;;3.70;1.50;;;24.50;30.70;;;;;;5051788;28;20451;-59
2021/05/04 11:03:49;;;;;;;3.80;1.50;;;24.50;29.80;;;;;;5053076;28;20475;-59
2021/05/04 11:06:37;;;;;;;3.20;1.60;;;24.50;29.70;;;;;;5052471;28;20417;-58
2021/05/04 11:09:08;;;;;;;4.10;1.57;;;24.60;29.80;;;;;;5041768;28;20405;-58
2021/05/04 11:11:41;;;;;;;2.90;1.20;;;24.60;29.90;;;;;;5054250;28;20422;-62
2021/05/04 11:14:15;;;;;;;3.60;1.10;;;24.60;30.00;;;;;;5054124;28;20390;-58
2021/05/04 11:16:48;;;;;;;3.78;1.30;;;24.60;29.90;;;;;;5053093;28;20393;-58
2021/05/04 11:19:16;;;;;;;4.53;1.10;;;24.60;29.90;;;;;;5054238;28;20937;-60
2021/05/04 11:21:48;;;;;;;4.82;1.40;;;24.60;29.90;;;;;;5018513;28;20393;-58
2021/05/04 11:24:19;;;;;;;4.10;1.20;;;24.60;29.80;;;;;;5032485;28;20575;-59
2021/05/04 11:27:01;;;;;;;3.45;1.27;;;24.60;29.80;;;;;;5034070;28;20486;-59
2021/05/04 11:29:30;;;;;;;4.07;1.13;;;24.60;29.80;;;;;;5038769;28;20386;-59
2021/05/04 11:32:25;;;;;;;3.33;1.20;;;24.60;29.20;;;;;;5053711;28;20428;-58
2021/05/04 11:34:51;;;;;;;2.40;1.20;;;24.70;29.20;;;;;;5051953;28;20401;-58
2021/05/04 11:37:23;;;;;;;2.88;1.15;;;24.70;29.20;;;;;;5053385;28;20413;-58
2021/05/04 11:40:02;;;;;;;4.07;1.38;;;24.60;29.40;;;;;;5051777;28;20932;-58
2021/05/04 11:42:47;;;;;;;1.48;0.80;;;24.60;29.70;;;;;;5051563;28;20415;-58
2021/05/04 11:45:28;;;;;;;2.08;1.00;;;24.60;29.80;;;;;;5053697;28;20393;-58
2021/05/04 11:47:56;;;;;;;2.63;1.15;;;24.60;29.70;;;;;;5053563;28;20394;-59
2021/05/04 11:50:26;;;;;;;1.95;1.00;;;24.60;29.70;;;;;;5051767;28;20405;-59
2021/05/04 11:52:58;;;;;;;1.75;1.00;;;24.60;29.60;;;;;;5051864;28;20445;-59
2021/05/04 11:55:27;;;;;;;4.78;1.00;;;24.60;29.60;;;;;;5053200;28;20389;-58
2021/05/04 11:58:04;;;;;;;1.98;1.00;;;24.70;29.70;;;;;;5053353;28;20903;-58
2021/05/04 12:00:39;;;;;;;2.00;1.02;;;24.70;29.70;;;;;;5053029;28;20389;-58
2021/05/04 12:03:13;;;;;;;6.40;1.10;;;24.60;29.70;;;;;;5032103;28;20477;-58
2021/05/04 12:05:42;;;;;;;3.10;1.10;;;24.70;30.10;;;;;;5033133;28;20475;-58
2021/05/04 12:08:11;;;;;;;2.45;0.90;;;24.70;30.00;;;;;;5033074;28;20521;-58
2021/05/04 12:10:40;;;;;;;2.25;1.13;;;24.70;30.00;;;;;;5032024;28;20434;-58
2021/05/04 12:13:10;;;;;;;2.20;1.00;;;24.70;29.80;;;;;;5033287;28;20427;-58
2021/05/04 12:15:39;;;;;;;2.08;1.10;;;24.80;29.70;;;;;;5031905;28;20906;-62
2021/05/04 12:18:25;;;;;;;2.13;0.90;;;24.70;29.60;;;;;;5033204;28;20469;-58
2021/05/04 12:21:00;;;;;;;2.38;0.88;;;24.70;29.60;;;;;;5032494;28;20399;-58
2021/05/04 12:23:30;;;;;;;1.85;0.90;;;24.70;29.70;;;;;;5031574;28;20419;-58
2021/05/04 12:26:09;;;;;;;1.90;0.80;;;24.70;29.60;;;;;;5032427;28;20883;-59
2021/05/04 12:28:54;;;;;;;1.83;0.93;;;24.70;29.70;;;;;;5031588;28;20391;-59
2021/05/04 12:31:23;;;;;;;2.53;0.80;;;24.70;29.70;;;;;;5031663;28;20435;-59
2021/05/04 12:33:52;;;;;;;1.67;0.80;;;24.80;29.70;;;;;;5033109;28;20760;-59
2021/05/04 12:36:35;;;;;;;1.27;0.70;;;24.80;29.70;;;;;;5032342;28;20884;-60
2021/05/04 12:39:06;;;;;;;1.13;0.70;;;24.80;29.70;;;;;;5029442;28;20421;-59
2021/05/04 12:41:35;;;;;;;1.50;0.80;;;24.90;29.70;;;;;;5030555;28;20483;-70
2021/05/04 12:46:46;;;;;;;1.70;0.70;;;24.90;29.70;;;;;;5032308;28;20411;-59
2021/05/04 12:49:13;;;;;;;1.30;0.65;;;24.90;29.50;;;;;;5032273;28;20398;-59
2021/05/04 12:51:47;;;;;;;2.13;0.93;;;25.00;29.60;;;;;;5032507;28;20418;-65
2021/05/04 12:54:19;;;;;;;1.98;1.00;;;25.10;29.70;;;;;;5032237;28;20739;-58
2021/05/04 12:56:49;;;;;;;1.45;0.80;;;25.10;29.80;;;;;;5032179;28;20763;-58
2021/05/04 12:59:26;;;;;;;2.30;0.90;;;25.10;29.70;;;;;;5032502;28;20395;-60
2021/05/04 13:01:54;;;;;;;1.43;0.80;;;25.20;29.80;;;;;;5032310;28;20399;-58
2021/05/04 13:07:07;;;;;;;2.28;0.80;;;25.30;29.30;;;;;;5032180;28;20411;-58
2021/05/04 13:12:22;;;;;;;1.98;0.80;;;25.30;29.90;;;;;;5032040;28;20434;-58